createdAt,value
2022-09-03T04:31:15.149Z,50.66
2022-09-03T04:33:42.819Z,50.69
2022-09-03T04:36:11.183Z,50.62
2022-09-03T04:38:39.522Z,50.58
2022-09-03T04:41:07.109Z,50.57
2022-09-03T04:43:34.653Z,50.51
2022-09-03T04:46:03.135Z,50.45
2022-09-03T04:48:32.110Z,50.41
2022-09-03T04:51:05.916Z,50.48
2022-09-03T04:53:34.078Z,50.58
2022-09-03T04:56:01.616Z,50.42
2022-09-03T04:58:29.148Z,50.43
2022-09-03T05:00:56.755Z,50.36
2022-09-03T05:03:24.440Z,50.37
2022-09-03T05:05:56.572Z,50.37
2022-09-03T05:08:24.284Z,50.36
2022-09-03T05:10:51.955Z,50.53
2022-09-03T05:13:22.627Z,50.35
2022-09-03T05:15:50.135Z,50.36
2022-09-03T05:18:17.881Z,50.33
2022-09-03T05:20:45.390Z,50.27
2022-09-03T05:23:14.363Z,50.30
2022-09-03T05:25:41.952Z,50.12
2022-09-03T05:28:09.480Z,50.34
2022-09-03T05:30:38.617Z,50.33
2022-09-03T05:33:06.558Z,50.34
2022-09-03T05:35:35.403Z,50.34
2022-09-03T05:38:03.653Z,50.24
2022-09-03T05:40:33.893Z,50.18
2022-09-03T05:43:05.337Z,50.12
2022-09-03T05:45:36.388Z,50.31
2022-09-03T05:48:04.159Z,50.24
2022-09-03T05:50:32.003Z,50.27
2022-09-03T05:52:59.769Z,50.15
2022-09-03T05:55:28.635Z,50.25
2022-09-03T05:57:57.732Z,50.19
2022-09-03T06:00:25.315Z,50.08
2022-09-03T06:02:53.473Z,50.15
2022-09-03T06:05:21.262Z,50.22
2022-09-03T06:07:49.605Z,50.17
2022-09-03T06:10:21.259Z,50.31
2022-09-03T06:12:52.299Z,50.16
2022-09-03T06:15:21.204Z,50.20
2022-09-03T06:17:48.816Z,50.14
2022-09-03T06:20:16.312Z,50.20
2022-09-03T06:22:45.892Z,50.09
2022-09-03T06:25:15.232Z,50.17
2022-09-03T06:27:43.089Z,50.29
2022-09-03T06:30:11.988Z,50.28
2022-09-03T06:32:46.012Z,50.45
2022-09-03T06:35:13.521Z,50.27
2022-09-03T06:37:41.191Z,50.16
2022-09-03T06:40:13.291Z,50.41
2022-09-03T06:42:41.211Z,50.33
2022-09-03T06:45:13.561Z,50.33
2022-09-03T06:47:41.116Z,50.37
2022-09-03T06:50:10.525Z,50.38
2022-09-03T06:52:38.071Z,50.44
2022-09-03T06:55:06.077Z,50.36
2022-09-03T06:57:33.604Z,50.54
2022-09-03T07:00:02.598Z,50.42
2022-09-03T07:02:30.134Z,50.55
2022-09-03T07:04:57.666Z,50.48
2022-09-03T07:07:27.961Z,50.58
2022-09-03T07:09:55.598Z,50.55
2022-09-03T07:12:23.283Z,50.69
2022-09-03T07:14:51.311Z,50.42
2022-09-03T07:17:18.895Z,50.67
2022-09-03T07:19:46.459Z,50.68
2022-09-03T07:22:14.081Z,50.64
2022-09-03T07:24:43.075Z,50.77
2022-09-03T07:27:14.449Z,50.73
2022-09-03T07:29:42.800Z,50.71
2022-09-03T07:32:10.663Z,50.85
2022-09-03T07:34:38.396Z,50.95
2022-09-03T07:37:07.339Z,51.01
2022-09-03T07:39:34.900Z,50.97
2022-09-03T07:42:03.942Z,50.89
2022-09-03T07:44:31.456Z,51.08
2022-09-03T07:46:59.032Z,50.97
2022-09-03T07:49:26.649Z,51.14
2022-09-03T07:51:54.684Z,51.18
2022-09-03T07:54:23.890Z,51.23
2022-09-03T07:56:51.530Z,51.18
2022-09-03T07:59:21.441Z,51.23
2022-09-03T08:01:49.047Z,51.34
2022-09-03T08:04:16.609Z,51.47
2022-09-03T08:06:44.140Z,51.54
2022-09-03T08:09:13.608Z,51.50
2022-09-03T08:11:41.786Z,51.73
2022-09-03T08:14:09.963Z,51.64
2022-09-03T08:16:39.535Z,51.87
2022-09-03T08:19:07.729Z,51.97
2022-09-03T08:21:35.799Z,51.72
2022-09-03T08:24:03.503Z,51.90
2022-09-03T08:26:31.572Z,51.90
2022-09-03T08:28:59.123Z,51.97
2022-09-03T08:31:27.996Z,51.95
2022-09-03T08:33:57.282Z,51.97
2022-09-03T08:36:25.314Z,52.10
2022-09-03T08:38:55.251Z,52.15
2022-09-03T08:41:24.599Z,52.18
2022-09-03T08:43:56.857Z,53.28
2022-09-03T08:46:26.033Z,53.39
2022-09-03T08:48:54.882Z,52.95
2022-09-03T08:51:23.997Z,52.72
2022-09-03T08:53:55.165Z,52.59
2022-09-03T08:56:25.297Z,52.71
2022-09-03T08:58:52.930Z,52.71
2022-09-03T09:01:24.604Z,52.90
2022-09-03T09:03:54.284Z,53.38
2022-09-03T09:06:24.925Z,53.43
2022-09-03T09:09:00.530Z,52.95
2022-09-03T09:11:30.705Z,53.18
2022-09-03T09:14:00.124Z,53.36
2022-09-03T09:16:30.941Z,53.11
2022-09-03T09:19:01.804Z,53.04
2022-09-03T09:21:31.017Z,53.05
2022-09-03T09:23:59.016Z,53.05
2022-09-03T09:26:26.590Z,53.09
2022-09-03T09:28:57.219Z,53.12
2022-09-03T09:31:24.760Z,53.24
2022-09-03T09:33:52.418Z,53.26
2022-09-03T09:36:20.321Z,53.32
2022-09-03T09:38:49.556Z,53.26
2022-09-03T09:41:17.329Z,53.35
2022-09-03T09:43:45.413Z,53.32
2022-09-03T09:46:14.454Z,53.55
2022-09-03T09:48:46.492Z,53.47
2022-09-03T09:51:14.861Z,53.58
2022-09-03T09:53:44.915Z,53.59
2022-09-03T09:56:22.485Z,53.64
2022-09-03T09:58:50.043Z,53.58
2022-09-03T10:01:19.366Z,53.64
2022-09-03T10:03:49.637Z,53.52
2022-09-03T10:06:34.622Z,53.69
2022-09-03T10:09:08.586Z,53.72
2022-09-03T10:11:40.463Z,53.70
2022-09-03T10:14:10.085Z,53.80
2022-09-03T10:16:40.581Z,53.81
2022-09-03T10:19:10.558Z,53.87
2022-09-03T10:21:40.752Z,53.95
2022-09-03T10:24:16.470Z,53.96
2022-09-03T10:26:46.432Z,54.01
2022-09-03T10:29:16.143Z,53.93
2022-09-03T10:31:46.614Z,53.89
2022-09-03T10:34:15.470Z,53.97
2022-09-03T10:36:45.532Z,53.96
2022-09-03T10:39:14.726Z,54.10
2022-09-03T10:41:47.465Z,54.19
2022-09-03T10:44:22.540Z,54.24
2022-09-03T10:46:53.994Z,54.21
2022-09-03T10:49:39.215Z,54.12
2022-09-03T10:52:08.784Z,54.11
2022-09-03T10:54:42.699Z,54.16
2022-09-03T10:57:14.630Z,54.21
2022-09-03T10:59:48.103Z,54.34
2022-09-03T11:02:22.685Z,54.35
2022-09-03T11:04:54.469Z,54.30
2022-09-03T11:07:22.423Z,54.48
2022-09-03T11:09:51.742Z,54.41
2022-09-03T11:12:21.540Z,54.42
2022-09-03T11:14:51.874Z,54.53
2022-09-03T11:17:21.508Z,54.57
2022-09-03T11:19:50.922Z,54.45
2022-09-03T11:22:20.919Z,54.48
2022-09-03T11:24:51.066Z,54.49
2022-09-03T11:27:24.002Z,54.61
2022-09-03T11:29:53.927Z,54.68
2022-09-03T11:32:23.309Z,54.69
2022-09-03T11:34:51.365Z,54.55
2022-09-03T11:37:19.975Z,54.81
2022-09-03T11:39:54.343Z,54.68
2022-09-03T11:42:28.606Z,54.65
2022-09-03T11:45:00.225Z,54.68
2022-09-03T11:47:38.250Z,54.76
2022-09-03T11:50:06.707Z,54.87
2022-09-03T11:52:40.337Z,54.74
2022-09-03T11:55:08.316Z,54.81
2022-09-03T11:57:43.373Z,54.83
2022-09-03T12:00:13.174Z,54.89
2022-09-03T12:02:45.158Z,54.75
2022-09-03T12:05:19.484Z,54.88
2022-09-03T12:07:50.871Z,54.76
2022-09-03T12:10:27.113Z,54.96
2022-09-03T12:12:58.955Z,54.79
2022-09-03T12:15:37.228Z,54.82
2022-09-03T12:18:20.249Z,54.85
2022-09-03T12:20:48.048Z,54.77
2022-09-03T12:23:16.419Z,54.91
2022-09-03T12:25:45.752Z,54.82
2022-09-03T12:28:19.399Z,54.79
2022-09-03T12:30:47.465Z,54.96
2022-09-03T12:33:18.043Z,54.87
2022-09-03T12:36:01.042Z,54.97
2022-09-03T12:38:29.425Z,55.02
2022-09-03T12:43:50.568Z,54.82
2022-09-03T12:46:18.434Z,54.95
2022-09-03T12:49:30.070Z,54.90
2022-09-03T12:51:55.455Z,54.94
2022-09-03T12:54:24.077Z,54.88
2022-09-03T12:56:53.195Z,54.84
2022-09-03T12:59:22.042Z,54.97
2022-09-03T13:01:50.725Z,54.80
2022-09-03T13:04:18.658Z,54.79
2022-09-03T13:06:49.865Z,54.93
2022-09-03T13:09:17.739Z,54.99
2022-09-03T13:11:45.271Z,54.97
2022-09-03T13:14:13.335Z,55.12
2022-09-03T13:16:56.139Z,55.05
2022-09-03T13:19:26.153Z,55.17
2022-09-03T13:21:55.382Z,55.10
2022-09-03T13:24:37.885Z,55.23
2022-09-03T13:27:08.393Z,55.30
2022-09-03T13:29:40.736Z,55.26
2022-09-03T13:32:12.428Z,55.14
2022-09-03T13:34:41.316Z,55.12
2022-09-03T13:37:12.909Z,55.35
2022-09-03T13:39:41.694Z,55.24
2022-09-03T13:42:10.823Z,55.26
2022-09-03T13:44:42.138Z,55.35
2022-09-03T13:47:11.174Z,55.40
2022-09-03T13:49:58.008Z,55.24
2022-09-03T13:52:26.471Z,55.37
2022-09-03T13:54:55.732Z,55.42
2022-09-03T13:57:26.091Z,55.36
2022-09-03T13:59:53.839Z,55.38
2022-09-03T14:02:24.582Z,55.34
2022-09-03T14:04:59.857Z,55.41
2022-09-03T14:07:28.138Z,55.45
2022-09-03T14:09:59.656Z,55.40
2022-09-03T14:12:31.677Z,55.54
2022-09-03T14:15:00.474Z,55.56
2022-09-03T14:17:33.276Z,55.47
2022-09-03T14:20:01.510Z,55.71
2022-09-03T14:22:30.545Z,55.53
2022-09-03T14:24:59.269Z,55.52
2022-09-03T14:27:27.246Z,55.59
2022-09-03T14:29:55.685Z,55.62
2022-09-03T14:32:25.481Z,55.65
2022-09-03T14:35:00.261Z,55.63
2022-09-03T14:37:38.466Z,55.79
2022-09-03T14:40:06.965Z,55.76
2022-09-03T14:42:41.804Z,55.67
2022-09-03T14:45:33.922Z,55.77
2022-09-03T14:48:08.988Z,55.80
2022-09-03T14:50:42.253Z,55.77
2022-09-03T14:53:20.125Z,55.85
2022-09-03T14:56:05.686Z,55.84
2022-09-03T14:58:50.042Z,55.82
2022-09-03T15:01:19.081Z,55.79
2022-09-03T15:04:05.462Z,55.81
2022-09-03T15:06:43.999Z,55.87
2022-09-03T15:09:29.689Z,55.97
2022-09-03T15:11:58.510Z,55.79
2022-09-03T15:14:27.887Z,55.86
2022-09-03T15:16:58.357Z,55.93
2022-09-03T15:19:34.088Z,55.98
2022-09-03T15:22:09.696Z,55.97
2022-09-03T15:24:40.701Z,55.85
2022-09-03T15:27:10.977Z,55.99
2022-09-03T15:29:49.751Z,55.85
2022-09-03T15:32:20.270Z,55.99
2022-09-03T15:34:51.188Z,55.88
2022-09-03T15:37:21.541Z,55.92
2022-09-03T15:39:49.381Z,55.96
2022-09-03T15:42:18.805Z,55.94
2022-09-03T15:44:46.973Z,56.01
2022-09-03T15:47:15.668Z,55.99
2022-09-03T15:49:46.017Z,56.00
2022-09-03T15:52:20.217Z,56.08
2022-09-03T15:54:49.508Z,56.13
2022-09-03T15:57:19.399Z,56.03
2022-09-03T15:59:48.503Z,56.00
2022-09-03T16:02:16.383Z,56.05
2022-09-03T16:04:52.154Z,55.92
2022-09-03T16:07:21.695Z,56.02
2022-09-03T16:10:20.700Z,55.98
2022-09-03T16:12:46.252Z,55.88
2022-09-03T16:15:15.484Z,56.17
2022-09-03T16:17:45.928Z,56.11
2022-09-03T16:20:16.142Z,55.96
2022-09-03T16:22:44.692Z,56.14
2022-09-03T16:25:15.604Z,56.01
2022-09-03T16:27:43.724Z,56.10
2022-09-03T16:30:12.159Z,56.14
2022-09-03T16:32:49.431Z,56.04
2022-09-03T16:35:18.523Z,56.00
2022-09-03T16:37:48.568Z,55.99
2022-09-03T16:40:24.539Z,56.03
2022-09-03T16:42:54.424Z,55.95
2022-09-03T16:45:27.367Z,56.11
2022-09-03T16:48:03.581Z,56.08
2022-09-03T16:50:33.059Z,56.00
2022-09-03T16:53:02.970Z,56.20
2022-09-03T16:55:33.839Z,56.14
2022-09-03T16:58:08.066Z,56.10
2022-09-03T17:00:39.720Z,56.13
2022-09-03T17:03:25.827Z,56.12
2022-09-03T17:06:07.148Z,56.04
2022-09-03T17:08:36.161Z,56.21
2022-09-03T17:11:07.939Z,56.04
2022-09-03T17:13:48.041Z,56.25
2022-09-03T17:16:21.730Z,56.30
2022-09-03T17:18:52.816Z,56.28
2022-09-03T17:21:24.015Z,56.28
2022-09-03T17:24:09.609Z,56.31
2022-09-03T17:26:40.342Z,56.16
2022-09-03T17:29:12.982Z,56.13
2022-09-03T17:31:42.458Z,56.27
2022-09-03T17:34:13.383Z,56.23
2022-09-03T17:36:41.914Z,56.19
2022-09-03T17:39:24.623Z,56.35
2022-09-03T17:41:54.304Z,56.22
2022-09-03T17:44:25.233Z,56.25
2022-09-03T17:46:57.072Z,56.24
2022-09-03T17:49:24.876Z,56.40
2022-09-03T17:51:53.003Z,56.22
2022-09-03T17:54:22.925Z,56.34
2022-09-03T17:56:52.205Z,56.32
2022-09-03T17:59:22.361Z,56.31
2022-09-03T18:01:51.283Z,56.27
2022-09-03T18:04:28.602Z,56.35
2022-09-03T18:06:57.284Z,56.35
2022-09-03T18:09:26.139Z,56.39
2022-09-03T18:11:56.153Z,56.35
2022-09-03T18:14:25.767Z,56.28
2022-09-03T18:16:53.875Z,56.46
2022-09-03T18:19:29.215Z,56.34
2022-09-03T18:22:21.100Z,56.48
2022-09-03T18:25:08.052Z,56.49
2022-09-03T18:27:55.347Z,56.40
2022-09-03T18:30:41.744Z,56.35
2022-09-03T18:33:26.703Z,56.38
2022-09-03T18:36:11.907Z,56.45
2022-09-03T18:38:57.372Z,56.36
2022-09-03T18:41:52.710Z,56.43
2022-09-03T18:44:40.520Z,56.59
2022-09-03T18:50:35.583Z,56.61
2022-09-03T18:53:21.547Z,56.48
2022-09-03T18:56:11.068Z,56.40
2022-09-03T18:58:59.822Z,56.47
2022-09-03T19:01:46.196Z,56.56
2022-09-03T19:04:34.060Z,56.45
2022-09-03T19:07:20.903Z,56.57
2022-09-03T19:10:07.555Z,56.47
2022-09-03T19:12:59.169Z,56.61
2022-09-03T19:15:46.086Z,56.71
2022-09-03T19:18:34.711Z,56.51
2022-09-03T19:21:23.549Z,56.56
2022-09-03T19:24:17.257Z,56.56
2022-09-03T19:27:23.569Z,56.58
2022-09-03T19:30:15.305Z,56.50
2022-09-03T19:33:02.137Z,56.52
2022-09-03T19:35:47.996Z,56.62
2022-09-03T19:38:36.500Z,56.54
2022-09-03T19:41:24.596Z,56.59
2022-09-03T19:44:13.083Z,56.66
2022-09-03T19:46:59.152Z,56.60
2022-09-03T19:49:50.111Z,56.68
2022-09-03T19:52:38.142Z,56.62
2022-09-03T19:55:24.768Z,56.68
2022-09-03T19:58:39.150Z,56.67
2022-09-03T20:01:19.840Z,56.63
2022-09-03T20:04:04.933Z,56.64
2022-09-03T20:06:50.238Z,56.68
2022-09-03T20:09:36.104Z,56.74
2022-09-03T20:12:08.399Z,56.61
2022-09-03T20:14:37.837Z,56.57
2022-09-03T20:17:20.610Z,56.74
2022-09-03T20:19:52.184Z,56.59
2022-09-03T20:22:20.510Z,56.69
2022-09-03T20:24:56.454Z,56.58
2022-09-03T20:27:27.149Z,56.75
2022-09-03T20:29:57.792Z,56.73
2022-09-03T20:32:30.508Z,56.86
2022-09-03T20:34:59.119Z,56.67
2022-09-03T20:37:29.171Z,56.59
2022-09-03T20:40:04.702Z,56.59
2022-09-03T20:42:37.010Z,56.69
2022-09-03T20:45:06.621Z,56.75
2022-09-03T20:47:42.140Z,56.65
2022-09-03T20:50:15.133Z,56.80
2022-09-03T20:52:45.878Z,56.81
2022-09-03T20:55:13.944Z,56.73
2022-09-03T20:57:45.816Z,56.75
2022-09-03T21:00:14.052Z,56.64
2022-09-03T21:02:53.340Z,56.56
2022-09-03T21:05:22.446Z,56.76
2022-09-03T21:07:53.242Z,56.80
2022-09-03T21:10:22.852Z,56.88
2022-09-03T21:12:52.979Z,56.73
2022-09-03T21:15:22.681Z,56.72
2022-09-03T21:17:54.177Z,56.78
2022-09-03T21:20:23.549Z,56.69
2022-09-03T21:22:55.001Z,56.61
2022-09-03T21:25:24.380Z,56.73
2022-09-03T21:27:55.303Z,56.65
2022-09-03T21:30:22.932Z,56.72
2022-09-03T21:32:51.360Z,56.66
2022-09-03T21:35:20.549Z,56.68
2022-09-03T21:37:50.860Z,56.76
2022-09-03T21:40:24.424Z,56.86
2022-09-03T21:42:55.233Z,56.77
2022-09-03T21:45:24.893Z,56.77
2022-09-03T21:47:52.744Z,56.92
2022-09-03T21:50:21.339Z,56.75
2022-09-03T21:52:50.046Z,56.68
2022-09-03T21:55:20.024Z,56.79
2022-09-03T21:57:48.681Z,56.75
2022-09-03T22:00:19.086Z,56.77
2022-09-03T22:02:47.317Z,56.74
2022-09-03T22:05:15.092Z,56.69
2022-09-03T22:07:53.609Z,56.70
2022-09-03T22:10:22.535Z,57.00
2022-09-03T22:12:52.159Z,56.97
2022-09-03T22:15:21.599Z,56.83
2022-09-03T22:17:56.873Z,56.72
2022-09-03T22:20:52.722Z,56.74
2022-09-03T22:23:24.701Z,56.87
2022-09-03T22:25:55.970Z,56.94
2022-09-03T22:28:25.982Z,56.82
2022-09-03T22:30:55.754Z,56.88
2022-09-03T22:33:24.317Z,56.86
2022-09-03T22:36:06.720Z,56.87
2022-09-03T22:38:41.202Z,56.89
2022-09-03T22:41:11.757Z,56.94
2022-09-03T22:43:39.556Z,56.84
2022-09-03T22:46:09.641Z,56.79
2022-09-03T22:48:41.769Z,56.85
2022-09-03T22:51:09.700Z,56.94
2022-09-03T22:53:43.788Z,56.86
2022-09-03T22:56:11.757Z,56.84
2022-09-03T22:58:39.727Z,56.87
2022-09-03T23:45:27.406Z,57.07
2022-09-03T23:47:59.254Z,56.92
2022-09-03T23:50:29.056Z,57.00
2022-09-03T23:53:03.524Z,56.94
2022-09-03T23:55:34.431Z,57.07
2022-09-03T23:58:04.669Z,56.97
